Wednesday, October 24, 2018, 2:50 AM GMT
Back to Local

CWBZ, St Anicet

Location: , , Canada Lat: 45.117
Local Time: 2:50 AM GMT ( 2:50 GMT) Lon: -74.283
Time Zone: GMT Elev: 160 ft

Show me the last for .
Show Coded

Time T Td Feel RH Dir Speed Gust Alt SLP Vis Weather Sky Remarks
2018-10-24 02:00 39 30 35 69 40° 6 - - 30.01 0 None
2018-10-24 01:00 42 32 37 66 50° 9 - - 29.99 0 None
2018-10-24 00:00 43 31 38 63 50° 8 - - 29.98 0 None
2018-10-23 23:00 44 33 39 67 50° 8 - - 29.98 0 None
2018-10-23 22:00 44 35 38 70 40° 9 - - 29.98 0 None
2018-10-23 21:00 45 37 40 72 60° 10 - - 29.96 0 None
2018-10-23 20:00 47 40 44 76 90° 6 - - 29.96 0 None
2018-10-23 19:00 49 35 45 58 90° 8 - - 29.95 0 None
2018-10-23 18:00 50 37 46 60 70° 10 - - 29.95 0 Peak wind: 20 mph (18 kts) from 50° at 20 min
2018-10-23 17:00 49 38 42 64 60° 14 20 - 29.96 0 Peak wind: 21 mph (19 kts) from 70° at 14 min
2018-10-23 16:00 47 37 40 65 60° 14 20 - 29.99 0 Peak wind: 20 mph (18 kts) from 60° at 15 min
2018-10-23 15:00 43 35 34 72 60° 10 20 - 30.01 0 Peak wind: 19 mph (17 kts) from 40° at 57 min
2018-10-23 14:00 39 34 32 82 60° 10 - - 30.04 0 None
2018-10-23 13:00 37 34 31 86 60° 8 - - 30.05 0 None
2018-10-23 12:00 36 31 30 84 70° 7 - - 30.05 0 None
2018-10-23 11:00 35 32 30 89 60° 6 - - 30.06 0 None
2018-10-23 10:00 35 32 30 85 70° 6 - - 30.07 0 None
2018-10-23 09:00 35 31 30 84 70° 6 - - 30.07 0 None
2018-10-23 08:00 36 31 31 81 70° 6 - - 30.07 0 None
2018-10-23 07:00 37 33 33 84 70° 6 - - 30.08 0 None
2018-10-23 06:00 38 31 34 76 70° 5 - - 30.09 0 None
2018-10-23 05:00 38 31 36 77 80° 3 - - 30.09 0 None
2018-10-23 04:00 38 31 36 77 50° 3 - - 30.10 0 None
2018-10-23 03:00 38 30 36 71 80° 3 - - 30.09 0 None

Support USWX by starting your Amazon purchase here.